createdAt,value
2022-07-27T00:02:03.231Z,52.80
2022-07-27T00:04:30.953Z,52.70
2022-07-27T00:07:00.008Z,52.80
2022-07-27T00:09:27.615Z,52.80
2022-07-27T00:11:55.257Z,53.50
2022-07-27T00:14:22.898Z,52.80
2022-07-27T00:16:50.458Z,52.80
2022-07-27T00:19:18.165Z,52.90
2022-07-27T00:21:46.227Z,52.90
2022-07-27T00:24:15.775Z,52.90
2022-07-27T00:26:43.466Z,52.90
2022-07-27T00:29:11.214Z,52.90
2022-07-27T00:31:39.302Z,52.90
2022-07-27T00:34:06.909Z,52.90
2022-07-27T00:36:34.513Z,52.90
2022-07-27T00:39:02.230Z,52.90
2022-07-27T00:41:31.374Z,53.00
2022-07-27T00:43:59.990Z,52.90
2022-07-27T00:46:28.242Z,52.90
2022-07-27T00:48:55.994Z,53.00
2022-07-27T00:51:23.717Z,53.00
2022-07-27T00:53:51.696Z,53.00
2022-07-27T00:56:19.275Z,53.00
2022-07-27T00:58:50.568Z,53.00
2022-07-27T01:01:18.417Z,53.60
2022-07-27T01:03:46.099Z,53.10
2022-07-27T01:06:15.906Z,53.00
2022-07-27T01:08:43.598Z,53.10
2022-07-27T01:11:11.322Z,53.10
2022-07-27T01:13:38.923Z,53.10
2022-07-27T01:16:08.286Z,53.10
2022-07-27T01:18:37.395Z,53.10
2022-07-27T01:21:05.697Z,53.10
2022-07-27T01:23:34.867Z,53.10
2022-07-27T01:26:02.463Z,53.10
2022-07-27T01:28:30.108Z,53.10
2022-07-27T01:30:57.807Z,53.10
2022-07-27T01:33:26.269Z,53.20
2022-07-27T01:35:54.642Z,53.20
2022-07-27T01:38:22.242Z,53.20
2022-07-27T01:40:51.508Z,53.30
2022-07-27T01:43:19.008Z,53.20
2022-07-27T01:45:46.496Z,53.20
2022-07-27T01:48:13.945Z,53.20
2022-07-27T01:50:47.586Z,53.60
2022-07-27T01:53:15.498Z,53.20
2022-07-27T01:55:42.938Z,53.30
2022-07-27T01:58:11.913Z,53.30
2022-07-27T02:00:39.401Z,53.30
2022-07-27T02:03:08.214Z,53.30
2022-07-27T02:05:35.871Z,53.30
2022-07-27T02:08:03.481Z,53.30
2022-07-27T02:10:31.091Z,53.30
2022-07-27T02:12:58.547Z,53.30
2022-07-27T02:15:28.725Z,53.40
2022-07-27T02:18:33.242Z,53.40
2022-07-27T02:20:58.865Z,53.40
2022-07-27T02:23:26.547Z,53.50
2022-07-27T02:25:54.005Z,53.50
2022-07-27T02:28:21.533Z,53.50
2022-07-27T02:30:50.475Z,53.50
2022-07-27T02:33:17.990Z,53.50
2022-07-27T02:35:45.770Z,53.60
2022-07-27T02:38:13.299Z,53.60
2022-07-27T02:40:41.059Z,53.60
2022-07-27T02:43:08.540Z,53.70
2022-07-27T02:45:35.995Z,53.60
2022-07-27T02:48:05.098Z,53.70
2022-07-27T02:50:36.067Z,53.70
2022-07-27T02:53:03.516Z,53.70
2022-07-27T02:55:31.030Z,53.70
2022-07-27T02:57:58.544Z,53.70
2022-07-27T03:00:26.014Z,53.70
2022-07-27T03:02:53.582Z,53.80
2022-07-27T03:05:22.514Z,53.80
2022-07-27T03:07:50.063Z,53.80
2022-07-27T03:10:17.606Z,53.80
2022-07-27T03:12:45.581Z,53.80
2022-07-27T03:15:13.058Z,53.90
2022-07-27T03:17:40.467Z,53.90
2022-07-27T03:20:10.659Z,53.90
2022-07-27T03:22:39.723Z,53.90
2022-07-27T03:25:08.535Z,53.90
2022-07-27T03:27:36.120Z,53.90
2022-07-27T03:30:04.477Z,53.90
2022-07-27T03:32:31.937Z,53.90
2022-07-27T03:34:59.482Z,53.90
2022-07-27T03:37:26.947Z,53.90
2022-07-27T03:39:55.959Z,53.90
2022-07-27T03:42:23.448Z,53.90
2022-07-27T03:44:50.877Z,53.90
2022-07-27T03:47:18.296Z,53.90
2022-07-27T03:49:45.792Z,53.90
2022-07-27T03:52:17.691Z,54.00
2022-07-27T03:54:45.643Z,53.90
2022-07-27T03:57:14.743Z,53.90
2022-07-27T03:59:42.233Z,53.90
2022-07-27T04:02:09.751Z,53.90
2022-07-27T04:04:37.256Z,53.90
2022-07-27T04:07:04.781Z,53.80
2022-07-27T04:09:32.290Z,53.80
2022-07-27T04:11:59.859Z,53.80
2022-07-27T04:14:28.797Z,53.70
2022-07-27T04:16:56.287Z,53.70
2022-07-27T04:19:23.922Z,53.70
2022-07-27T04:21:51.436Z,53.70
2022-07-27T04:24:19.043Z,53.70
2022-07-27T04:26:46.584Z,53.70
2022-07-27T04:29:19.975Z,53.70
2022-07-27T04:31:49.743Z,53.60
2022-07-27T04:34:17.330Z,53.70
2022-07-27T04:36:45.111Z,53.60
2022-07-27T04:39:12.911Z,54.30
2022-07-27T04:41:40.870Z,53.60
2022-07-27T04:44:08.458Z,53.60
2022-07-27T04:46:36.151Z,53.60
2022-07-27T04:49:05.248Z,53.60
2022-07-27T04:51:34.775Z,53.60
2022-07-27T04:54:02.788Z,53.60
2022-07-27T04:56:30.260Z,53.60
2022-07-27T04:58:57.814Z,53.70
2022-07-27T05:01:25.551Z,53.70
2022-07-27T05:03:53.990Z,53.70
2022-07-27T05:06:23.088Z,53.70
2022-07-27T05:08:50.665Z,53.60
2022-07-27T05:11:18.245Z,53.70
2022-07-27T05:13:45.827Z,53.70
2022-07-27T05:16:13.553Z,53.70
2022-07-27T05:18:41.224Z,53.70
2022-07-27T05:21:09.302Z,53.80
2022-07-27T05:23:38.459Z,53.80
2022-07-27T05:26:05.986Z,53.70
2022-07-27T05:28:33.605Z,53.80
2022-07-27T05:31:01.216Z,53.80
2022-07-27T05:33:28.902Z,53.90
2022-07-27T05:35:56.521Z,53.80
2022-07-27T05:38:24.175Z,53.90
2022-07-27T05:40:54.199Z,53.90
2022-07-27T05:43:21.737Z,53.80
2022-07-27T05:45:49.358Z,53.90
2022-07-27T05:48:17.096Z,53.90
2022-07-27T05:50:44.863Z,53.90
2022-07-27T05:53:12.495Z,53.90
2022-07-27T05:55:58.040Z,53.90
2022-07-27T05:58:29.299Z,53.90
2022-07-27T06:00:57.115Z,54.00
2022-07-27T06:03:24.806Z,54.00
2022-07-27T06:05:52.520Z,54.00
2022-07-27T06:08:20.134Z,54.00
2022-07-27T06:10:47.746Z,54.10
2022-07-27T06:13:15.384Z,54.00
2022-07-27T06:15:44.466Z,54.00
2022-07-27T06:18:12.049Z,54.10
2022-07-27T06:20:39.736Z,54.00
2022-07-27T06:23:07.746Z,54.10
2022-07-27T06:25:36.353Z,54.10
2022-07-27T06:28:04.409Z,54.00
2022-07-27T06:30:32.100Z,54.10
2022-07-27T06:33:01.137Z,54.00
2022-07-27T06:35:28.678Z,54.70
2022-07-27T06:37:56.316Z,54.10
2022-07-27T06:40:27.396Z,54.10
2022-07-27T06:42:57.466Z,54.10
2022-07-27T06:45:25.103Z,54.20
2022-07-27T06:47:52.480Z,54.10
2022-07-27T06:50:21.842Z,54.20
2022-07-27T06:52:49.767Z,54.20
2022-07-27T06:55:17.490Z,54.20
2022-07-27T06:57:45.135Z,54.20
2022-07-27T07:00:13.802Z,54.20
2022-07-27T07:02:54.219Z,54.20
2022-07-27T07:05:23.413Z,54.10
2022-07-27T07:07:51.065Z,54.20
2022-07-27T07:10:18.911Z,54.20
2022-07-27T07:12:48.189Z,54.20
2022-07-27T07:15:15.836Z,54.30
2022-07-27T07:17:43.472Z,54.30
2022-07-27T07:20:12.337Z,54.30
2022-07-27T07:22:41.399Z,54.40
2022-07-27T07:25:09.320Z,54.30
2022-07-27T07:27:36.905Z,54.30
2022-07-27T07:30:04.949Z,54.40
2022-07-27T07:32:33.729Z,54.30
2022-07-27T07:35:01.626Z,54.30
2022-07-27T07:37:33.521Z,54.30
2022-07-27T07:40:42.173Z,54.30
2022-07-27T07:42:52.469Z,54.30
2022-07-27T07:45:20.457Z,54.30
2022-07-27T07:47:48.106Z,54.30
2022-07-27T07:50:15.811Z,54.30
2022-07-27T07:52:43.603Z,54.30
2022-07-27T07:55:12.748Z,54.30
2022-07-27T07:57:41.164Z,54.20
2022-07-27T08:00:10.675Z,54.20
2022-07-27T08:02:45.783Z,54.20
2022-07-27T08:05:13.553Z,54.10
2022-07-27T08:07:41.157Z,54.20
2022-07-27T08:10:09.218Z,54.20
2022-07-27T08:12:39.028Z,54.20
2022-07-27T08:15:07.741Z,54.20
2022-07-27T08:17:38.297Z,54.20
2022-07-27T08:20:07.063Z,54.20
2022-07-27T08:22:34.575Z,54.20
2022-07-27T08:25:02.231Z,54.20
2022-07-27T08:27:29.826Z,54.20
2022-07-27T08:30:10.423Z,54.30
2022-07-27T08:32:49.546Z,54.20
2022-07-27T08:35:18.093Z,54.20
2022-07-27T08:37:45.740Z,54.90
2022-07-27T08:43:01.951Z,54.20
2022-07-27T08:45:32.265Z,54.20
2022-07-27T08:47:59.743Z,54.20
2022-07-27T08:50:27.479Z,54.10
2022-07-27T08:52:56.781Z,54.10
2022-07-27T08:55:24.463Z,54.10
2022-07-27T08:57:52.205Z,54.10
2022-07-27T09:00:19.985Z,54.10
2022-07-27T09:02:49.376Z,54.10
2022-07-27T09:05:17.238Z,54.10
2022-07-27T09:07:44.848Z,54.10
2022-07-27T09:10:13.279Z,54.20
2022-07-27T09:12:40.864Z,54.20
2022-07-27T09:15:10.395Z,54.20
2022-07-27T09:17:48.415Z,54.20
2022-07-27T09:20:19.614Z,54.20
2022-07-27T09:22:48.769Z,54.20
2022-07-27T09:25:18.384Z,54.20
2022-07-27T09:27:46.609Z,54.20
2022-07-27T09:30:15.302Z,54.20
2022-07-27T09:32:53.727Z,54.10
2022-07-27T09:35:24.539Z,54.00
2022-07-27T09:37:52.188Z,54.10
2022-07-27T09:40:25.624Z,54.10
2022-07-27T09:43:52.407Z,54.10
2022-07-27T09:45:56.957Z,54.00
2022-07-27T09:48:24.675Z,54.20
2022-07-27T09:51:32.849Z,54.10
2022-07-27T09:53:51.236Z,54.10
2022-07-27T09:56:19.069Z,54.10
2022-07-27T09:58:48.116Z,54.10
2022-07-27T10:01:16.867Z,54.10
2022-07-27T10:03:45.195Z,54.10
2022-07-27T10:06:14.252Z,54.10
2022-07-27T10:08:44.349Z,54.20
2022-07-27T10:11:14.280Z,54.10
2022-07-27T10:13:44.162Z,54.10
2022-07-27T10:16:13.526Z,54.10
2022-07-27T10:18:55.721Z,54.10
2022-07-27T10:21:25.435Z,54.00
2022-07-27T10:23:57.333Z,54.10
2022-07-27T10:26:33.128Z,54.10
2022-07-27T10:29:01.699Z,54.00
2022-07-27T10:31:30.810Z,54.10
2022-07-27T10:33:58.939Z,54.00
2022-07-27T10:36:50.079Z,54.10
2022-07-27T10:39:39.190Z,54.00
2022-07-27T10:42:24.847Z,53.90
2022-07-27T10:44:54.028Z,54.00
2022-07-27T10:47:30.006Z,54.10
2022-07-27T10:50:25.974Z,54.00
2022-07-27T10:52:56.475Z,54.00
2022-07-27T10:55:50.872Z,54.10
2022-07-27T10:58:46.933Z,53.90
2022-07-27T11:01:17.895Z,54.00
2022-07-27T11:03:45.813Z,54.20
2022-07-27T11:06:32.609Z,54.10
2022-07-27T11:11:52.223Z,54.20
2022-07-27T11:14:30.257Z,54.20
2022-07-27T11:17:12.293Z,54.10
2022-07-27T11:19:52.406Z,54.10
2022-07-27T11:22:39.622Z,54.10
2022-07-27T11:25:19.134Z,54.20
2022-07-27T11:27:48.145Z,54.20
2022-07-27T11:30:22.794Z,54.10
2022-07-27T11:32:50.487Z,54.10
2022-07-27T11:35:20.249Z,54.10
2022-07-27T11:37:59.211Z,54.10
2022-07-27T11:43:37.551Z,54.00
2022-07-27T11:46:16.223Z,53.90
2022-07-27T11:49:05.617Z,53.90
2022-07-27T11:51:35.212Z,54.00
2022-07-27T11:54:03.318Z,54.00
2022-07-27T11:56:33.290Z,54.00
2022-07-27T11:59:06.722Z,53.90
2022-07-27T12:01:35.263Z,53.90
2022-07-27T12:04:11.660Z,54.00
2022-07-27T12:06:40.014Z,53.90
2022-07-27T12:09:08.377Z,53.90
2022-07-27T12:11:55.300Z,53.90
2022-07-27T12:14:30.241Z,53.80
2022-07-27T12:17:18.583Z,53.90
2022-07-27T12:19:57.641Z,53.90
2022-07-27T12:22:30.612Z,53.90
2022-07-27T12:24:58.591Z,54.00
2022-07-27T12:27:27.680Z,53.90
2022-07-27T12:30:00.111Z,53.80
2022-07-27T12:32:28.034Z,53.90
2022-07-27T12:34:55.592Z,53.80
2022-07-27T12:37:23.174Z,53.90
2022-07-27T12:39:50.741Z,53.90
2022-07-27T12:42:18.299Z,53.90
2022-07-27T12:44:47.453Z,53.80
2022-07-27T12:47:14.995Z,53.90
2022-07-27T12:49:46.444Z,53.90
2022-07-27T12:52:14.595Z,53.90
2022-07-27T12:54:42.183Z,53.90
2022-07-27T12:57:09.840Z,53.90
2022-07-27T12:59:37.412Z,53.80
2022-07-27T13:02:06.486Z,53.80
2022-07-27T13:04:34.012Z,53.70
2022-07-27T13:07:01.561Z,53.70
2022-07-27T13:10:02.060Z,53.70
2022-07-27T13:12:17.839Z,53.60
2022-07-27T13:14:45.364Z,53.60
2022-07-27T13:17:14.586Z,53.60
2022-07-27T13:19:42.249Z,53.60
2022-07-27T13:22:09.862Z,53.60
2022-07-27T13:24:37.536Z,53.60
2022-07-27T13:27:05.337Z,53.60
2022-07-27T13:29:32.936Z,53.60
2022-07-27T13:32:00.555Z,53.60
2022-07-27T13:34:29.737Z,53.60
2022-07-27T13:36:57.411Z,53.60
2022-07-27T13:39:25.016Z,53.60
2022-07-27T13:41:52.697Z,53.50
2022-07-27T13:44:49.159Z,53.50
2022-07-27T13:47:11.310Z,53.50
2022-07-27T13:49:40.386Z,53.60
2022-07-27T13:52:07.961Z,53.50
2022-07-27T13:54:35.724Z,53.40
2022-07-27T13:57:03.393Z,53.40
2022-07-27T13:59:31.158Z,53.50
2022-07-27T14:01:59.006Z,53.50
2022-07-27T14:04:29.059Z,53.50
2022-07-27T14:07:00.308Z,53.40
2022-07-27T14:09:28.083Z,53.40
2022-07-27T14:11:55.622Z,53.50
2022-07-27T14:14:26.749Z,53.40
2022-07-27T14:16:55.194Z,53.40
2022-07-27T14:19:22.837Z,53.50
2022-07-27T14:21:50.418Z,53.40
2022-07-27T14:24:19.437Z,53.40
2022-07-27T14:26:46.995Z,53.40
2022-07-27T14:29:14.890Z,53.40
2022-07-27T14:31:42.778Z,53.40
2022-07-27T14:34:10.443Z,53.40
2022-07-27T14:36:38.047Z,53.30
2022-07-27T14:39:05.732Z,53.40
2022-07-27T14:41:34.792Z,53.40
2022-07-27T14:44:02.394Z,53.40
2022-07-27T14:46:30.063Z,53.40
2022-07-27T14:49:06.544Z,53.40
2022-07-27T14:51:35.054Z,53.40
2022-07-27T14:54:03.416Z,53.40
2022-07-27T14:56:30.917Z,53.40
2022-07-27T14:59:00.024Z,53.40
2022-07-27T15:01:27.554Z,53.40
2022-07-27T15:03:55.187Z,53.40
2022-07-27T15:06:22.871Z,53.40
2022-07-27T15:08:50.499Z,53.40
2022-07-27T15:11:18.195Z,53.40
2022-07-27T15:13:45.861Z,53.30
2022-07-27T15:16:15.156Z,53.40
2022-07-27T15:18:42.828Z,53.40
2022-07-27T15:21:14.186Z,53.40
2022-07-27T15:23:43.018Z,53.40
2022-07-27T15:26:10.647Z,53.40
2022-07-27T15:28:38.245Z,53.40
2022-07-27T15:31:05.945Z,53.40
2022-07-27T15:33:35.085Z,53.40
2022-07-27T15:36:02.673Z,53.40
2022-07-27T15:38:30.321Z,53.40
2022-07-27T15:40:57.895Z,53.40
2022-07-27T15:43:25.471Z,53.40
2022-07-27T15:45:53.120Z,53.50
2022-07-27T15:48:20.805Z,53.60
2022-07-27T15:50:50.923Z,53.60
2022-07-27T15:53:18.739Z,53.70
2022-07-27T15:55:47.061Z,53.70
2022-07-27T15:58:15.391Z,53.70
2022-07-27T16:00:43.000Z,53.70
2022-07-27T16:03:10.772Z,53.70
2022-07-27T16:05:38.552Z,53.70
2022-07-27T16:08:08.039Z,53.70
2022-07-27T16:10:35.642Z,53.70
2022-07-27T16:13:03.283Z,53.70
2022-07-27T16:15:30.922Z,53.70
2022-07-27T16:17:58.471Z,53.70
2022-07-27T16:20:26.010Z,53.70
2022-07-27T16:22:53.537Z,53.80
2022-07-27T16:25:30.649Z,53.70
2022-07-27T16:28:10.208Z,53.70
2022-07-27T16:30:38.386Z,53.70
2022-07-27T16:33:06.310Z,53.70
2022-07-27T16:35:33.979Z,53.80
2022-07-27T16:38:01.697Z,53.70
2022-07-27T16:40:30.771Z,53.70
2022-07-27T16:42:58.487Z,53.70
2022-07-27T16:45:26.228Z,53.70
2022-07-27T16:47:53.722Z,53.60
2022-07-27T16:50:21.519Z,53.50
2022-07-27T16:52:49.036Z,53.50
2022-07-27T16:55:16.602Z,53.40
2022-07-27T16:57:45.684Z,53.40
2022-07-27T17:00:14.717Z,53.20
2022-07-27T17:02:42.314Z,53.10
2022-07-27T17:05:10.519Z,53.00
2022-07-27T17:07:38.148Z,52.80
2022-07-27T17:10:06.178Z,52.70
2022-07-27T17:12:38.103Z,52.60
2022-07-27T17:15:09.799Z,52.60
2022-07-27T17:17:37.411Z,52.70
2022-07-27T17:20:06.189Z,52.70
2022-07-27T17:22:33.828Z,52.70
2022-07-27T17:25:01.441Z,52.70
2022-07-27T17:27:28.960Z,52.80
2022-07-27T17:29:56.599Z,52.70
2022-07-27T17:32:25.677Z,52.70
2022-07-27T17:34:53.280Z,52.70
2022-07-27T17:37:20.878Z,52.70
2022-07-27T17:39:48.560Z,52.60
2022-07-27T17:42:16.416Z,52.50
2022-07-27T17:44:44.071Z,52.40
2022-07-27T17:47:11.683Z,52.40
2022-07-27T17:49:40.703Z,52.40
2022-07-27T17:52:08.394Z,52.30
2022-07-27T17:54:36.040Z,52.30
2022-07-27T17:57:03.621Z,52.30
2022-07-27T17:59:38.695Z,52.30
2022-07-27T18:02:06.638Z,52.30
2022-07-27T18:04:38.758Z,52.30
2022-07-27T18:07:08.566Z,52.30
2022-07-27T18:09:36.160Z,52.30
2022-07-27T18:12:03.926Z,52.20
2022-07-27T18:14:31.549Z,52.20
2022-07-27T18:16:59.060Z,52.20
2022-07-27T18:19:26.731Z,52.10
2022-07-27T18:21:57.251Z,52.10
2022-07-27T18:24:26.384Z,52.10
2022-07-27T18:26:53.925Z,52.20
2022-07-27T18:29:21.526Z,52.20
2022-07-27T18:31:49.101Z,52.20
2022-07-27T18:34:16.719Z,52.30
2022-07-27T18:36:44.303Z,52.30
2022-07-27T18:39:12.114Z,52.40
2022-07-27T18:41:41.654Z,52.40
2022-07-27T18:44:09.221Z,52.40
2022-07-27T18:46:36.970Z,52.50
2022-07-27T18:49:04.728Z,52.50
2022-07-27T18:51:32.460Z,52.50
2022-07-27T18:54:00.102Z,52.50
2022-07-27T18:56:27.782Z,52.50
2022-07-27T18:58:56.924Z,52.60
2022-07-27T19:01:24.646Z,52.60
2022-07-27T19:03:52.205Z,52.60
2022-07-27T19:06:19.847Z,52.60
2022-07-27T19:08:47.378Z,52.60
2022-07-27T19:11:14.878Z,52.60
2022-07-27T19:13:42.529Z,52.50
2022-07-27T19:16:11.617Z,52.50
2022-07-27T19:18:39.192Z,52.60
2022-07-27T19:21:07.176Z,52.60
2022-07-27T19:23:34.395Z,52.70
2022-07-27T19:26:01.787Z,52.70
2022-07-27T19:28:29.060Z,52.80
2022-07-27T19:30:56.373Z,52.60
2022-07-27T19:33:25.223Z,52.60
2022-07-27T19:35:55.995Z,52.60
2022-07-27T19:38:23.476Z,52.70
2022-07-27T19:40:50.825Z,52.70
2022-07-27T19:43:18.518Z,52.60
2022-07-27T19:45:46.149Z,52.60
2022-07-27T19:48:13.722Z,52.50
2022-07-27T19:50:42.937Z,52.40
2022-07-27T19:53:10.504Z,52.40
2022-07-27T19:55:38.223Z,52.40
2022-07-27T19:58:06.510Z,52.40
2022-07-27T20:00:34.040Z,52.40
2022-07-27T20:03:01.520Z,52.40
2022-07-27T20:05:29.041Z,52.40
2022-07-27T20:07:59.646Z,52.30
2022-07-27T20:10:27.183Z,52.20
2022-07-27T20:12:55.191Z,52.30
2022-07-27T20:15:22.731Z,52.30
2022-07-27T20:17:50.319Z,52.30
2022-07-27T20:20:17.679Z,52.30
2022-07-27T20:22:44.955Z,52.30
2022-07-27T20:25:13.737Z,52.30
2022-07-27T20:27:41.085Z,52.40
2022-07-27T20:30:09.735Z,52.40
2022-07-27T20:32:37.044Z,52.30
2022-07-27T20:35:04.950Z,52.30
2022-07-27T20:37:32.200Z,52.30
2022-07-27T20:39:59.431Z,52.30
2022-07-27T20:42:28.296Z,52.40
2022-07-27T20:44:55.561Z,52.30
2022-07-27T20:47:22.924Z,52.30
2022-07-27T20:49:50.786Z,52.30
2022-07-27T20:52:18.048Z,52.30
2022-07-27T20:54:45.281Z,52.40
2022-07-27T20:57:12.579Z,52.40
2022-07-27T20:59:41.291Z,52.40
2022-07-27T21:02:08.585Z,52.40
2022-07-27T21:04:35.902Z,52.50
2022-07-27T21:07:03.170Z,52.60
2022-07-27T21:09:30.530Z,52.60
2022-07-27T21:11:57.841Z,52.60
2022-07-27T21:14:25.234Z,53.30
2022-07-27T21:16:54.033Z,52.70
2022-07-27T21:19:21.361Z,52.70
2022-07-27T21:21:48.670Z,52.70
2022-07-27T21:24:16.337Z,52.70
2022-07-27T21:26:45.682Z,52.80
2022-07-27T21:29:12.961Z,52.80
2022-07-27T21:31:40.290Z,52.90
2022-07-27T21:34:09.098Z,52.90
2022-07-27T21:36:36.371Z,52.90
2022-07-27T21:39:03.754Z,52.90
2022-07-27T21:41:31.066Z,53.00
2022-07-27T21:43:58.340Z,53.00
2022-07-27T21:46:25.632Z,53.00
2022-07-27T21:48:53.109Z,53.10
2022-07-27T21:51:26.127Z,53.10
2022-07-27T21:53:53.457Z,53.10
2022-07-27T21:56:22.150Z,53.20
2022-07-27T21:58:49.403Z,53.20
2022-07-27T22:01:16.901Z,53.20
2022-07-27T22:03:44.324Z,53.20
2022-07-27T22:06:11.733Z,53.40
2022-07-27T22:08:40.646Z,53.30
2022-07-27T22:11:07.986Z,53.30
2022-07-27T22:13:35.232Z,53.30
2022-07-27T22:16:02.705Z,53.40
2022-07-27T22:18:30.071Z,53.40
2022-07-27T22:20:57.682Z,53.40
2022-07-27T22:23:25.042Z,53.40
2022-07-27T22:25:53.782Z,53.40
2022-07-27T22:28:25.521Z,53.40
2022-07-27T22:31:16.507Z,53.40
2022-07-27T22:33:40.953Z,53.40
2022-07-27T22:36:12.163Z,53.60
2022-07-27T22:38:39.576Z,53.60
2022-07-27T22:41:08.805Z,53.60
2022-07-27T22:43:36.433Z,53.60
2022-07-27T22:46:04.241Z,53.70
2022-07-27T22:48:32.370Z,53.70
2022-07-27T22:51:00.409Z,53.70
2022-07-27T22:53:28.038Z,53.80
2022-07-27T22:55:55.574Z,53.70
2022-07-27T22:58:24.624Z,53.70
2022-07-27T23:00:55.973Z,53.70
2022-07-27T23:03:27.013Z,53.70
2022-07-27T23:05:54.581Z,53.70
2022-07-27T23:08:22.214Z,53.70
2022-07-27T23:10:49.794Z,53.70
2022-07-27T23:13:18.262Z,53.70
2022-07-27T23:15:47.548Z,53.70
2022-07-27T23:18:15.822Z,53.60
2022-07-27T23:20:43.478Z,53.70
2022-07-27T23:23:16.383Z,53.70
2022-07-27T23:25:44.805Z,53.60
2022-07-27T23:28:12.414Z,53.70
2022-07-27T23:30:40.047Z,53.70
2022-07-27T23:33:09.131Z,53.70
2022-07-27T23:35:36.737Z,53.70
2022-07-27T23:38:04.314Z,53.70
2022-07-27T23:40:31.899Z,53.70
2022-07-27T23:42:59.421Z,53.70
2022-07-27T23:45:27.059Z,53.60
2022-07-27T23:47:54.676Z,53.60
2022-07-27T23:50:24.525Z,53.60
2022-07-27T23:52:52.142Z,53.70
2022-07-27T23:55:19.855Z,53.60
2022-07-27T23:57:47.446Z,53.60
